sensor_id;sensor_type;location;lat;lon;timestamp;P1;durP1;ratioP1;P2;durP2;ratioP2
11763;SDS011;5939;56.522;14.950;2023-10-19T00:01:57;2.50;;;1.43;;
11763;SDS011;5939;56.522;14.950;2023-10-19T00:04:24;1.73;;;1.20;;
11763;SDS011;5939;56.522;14.950;2023-10-19T00:06:50;2.57;;;1.40;;
11763;SDS011;5939;56.522;14.950;2023-10-19T00:09:18;1.80;;;1.57;;
11763;SDS011;5939;56.522;14.950;2023-10-19T00:11:45;2.80;;;1.60;;
11763;SDS011;5939;56.522;14.950;2023-10-19T00:14:12;1.93;;;1.50;;
11763;SDS011;5939;56.522;14.950;2023-10-19T00:16:45;2.10;;;1.60;;
11763;SDS011;5939;56.522;14.950;2023-10-19T00:19:18;2.80;;;1.40;;
11763;SDS011;5939;56.522;14.950;2023-10-19T00:21:47;3.17;;;1.50;;
11763;SDS011;5939;56.522;14.950;2023-10-19T00:24:17;2.83;;;1.70;;
11763;SDS011;5939;56.522;14.950;2023-10-19T00:26:47;2.47;;;1.27;;
11763;SDS011;5939;56.522;14.950;2023-10-19T00:29:13;2.83;;;1.77;;
11763;SDS011;5939;56.522;14.950;2023-10-19T00:31:58;3.17;;;1.67;;
11763;SDS011;5939;56.522;14.950;2023-10-19T00:34:28;2.37;;;1.60;;
11763;SDS011;5939;56.522;14.950;2023-10-19T00:36:54;2.03;;;1.70;;
11763;SDS011;5939;56.522;14.950;2023-10-19T00:39:32;1.70;;;1.50;;
11763;SDS011;5939;56.522;14.950;2023-10-19T00:42:08;1.57;;;1.40;;
11763;SDS011;5939;56.522;14.950;2023-10-19T00:44:33;2.07;;;1.40;;
11763;SDS011;5939;56.522;14.950;2023-10-19T00:47:07;1.97;;;1.40;;
11763;SDS011;5939;56.522;14.950;2023-10-19T00:49:38;2.40;;;1.60;;
11763;SDS011;5939;56.522;14.950;2023-10-19T00:52:04;1.67;;;1.40;;
11763;SDS011;5939;56.522;14.950;2023-10-19T00:54:41;1.50;;;1.30;;
11763;SDS011;5939;56.522;14.950;2023-10-19T00:57:11;2.20;;;1.40;;
11763;SDS011;5939;56.522;14.950;2023-10-19T00:59:41;4.97;;;1.50;;
11763;SDS011;5939;56.522;14.950;2023-10-19T01:02:19;1.43;;;1.30;;
11763;SDS011;5939;56.522;14.950;2023-10-19T01:04:49;1.87;;;1.53;;
11763;SDS011;5939;56.522;14.950;2023-10-19T01:07:26;1.83;;;1.67;;
11763;SDS011;5939;56.522;14.950;2023-10-19T01:09:54;2.07;;;1.63;;
11763;SDS011;5939;56.522;14.950;2023-10-19T01:12:22;2.30;;;1.60;;
11763;SDS011;5939;56.522;14.950;2023-10-19T01:17:56;1.60;;;1.50;;
11763;SDS011;5939;56.522;14.950;2023-10-19T01:20:29;3.80;;;1.90;;
11763;SDS011;5939;56.522;14.950;2023-10-19T01:23:06;2.07;;;1.43;;
11763;SDS011;5939;56.522;14.950;2023-10-19T01:25:55;3.63;;;1.33;;
11763;SDS011;5939;56.522;14.950;2023-10-19T01:28:20;2.17;;;1.60;;
11763;SDS011;5939;56.522;14.950;2023-10-19T01:30:50;2.73;;;1.50;;
11763;SDS011;5939;56.522;14.950;2023-10-19T01:33:16;1.90;;;1.40;;
11763;SDS011;5939;56.522;14.950;2023-10-19T01:35:46;2.30;;;1.40;;
11763;SDS011;5939;56.522;14.950;2023-10-19T01:38:31;1.67;;;1.50;;
11763;SDS011;5939;56.522;14.950;2023-10-19T01:40:59;3.63;;;1.67;;
11763;SDS011;5939;56.522;14.950;2023-10-19T01:43:27;2.27;;;1.50;;
11763;SDS011;5939;56.522;14.950;2023-10-19T01:45:59;1.70;;;1.37;;
11763;SDS011;5939;56.522;14.950;2023-10-19T01:48:46;2.90;;;1.43;;
11763;SDS011;5939;56.522;14.950;2023-10-19T01:51:13;2.10;;;1.50;;
11763;SDS011;5939;56.522;14.950;2023-10-19T01:53:39;2.60;;;1.63;;
11763;SDS011;5939;56.522;14.950;2023-10-19T01:56:13;2.97;;;1.50;;
11763;SDS011;5939;56.522;14.950;2023-10-19T01:58:40;1.50;;;1.37;;
11763;SDS011;5939;56.522;14.950;2023-10-19T02:01:07;3.10;;;1.60;;
11763;SDS011;5939;56.522;14.950;2023-10-19T02:03:40;4.10;;;1.60;;
11763;SDS011;5939;56.522;14.950;2023-10-19T02:06:09;2.90;;;1.47;;
11763;SDS011;5939;56.522;14.950;2023-10-19T02:08:48;2.80;;;1.53;;
11763;SDS011;5939;56.522;14.950;2023-10-19T02:11:16;2.97;;;1.50;;
11763;SDS011;5939;56.522;14.950;2023-10-19T02:13:46;1.60;;;1.20;;
11763;SDS011;5939;56.522;14.950;2023-10-19T02:16:15;1.40;;;1.30;;
11763;SDS011;5939;56.522;14.950;2023-10-19T02:18:47;1.97;;;1.43;;
11763;SDS011;5939;56.522;14.950;2023-10-19T02:21:16;2.93;;;1.57;;
11763;SDS011;5939;56.522;14.950;2023-10-19T02:23:52;1.47;;;1.30;;
11763;SDS011;5939;56.522;14.950;2023-10-19T02:26:18;3.10;;;1.40;;
11763;SDS011;5939;56.522;14.950;2023-10-19T02:28:53;2.77;;;1.80;;
11763;SDS011;5939;56.522;14.950;2023-10-19T02:31:22;3.00;;;1.57;;
11763;SDS011;5939;56.522;14.950;2023-10-19T02:33:52;2.27;;;1.53;;
11763;SDS011;5939;56.522;14.950;2023-10-19T02:36:24;2.67;;;1.60;;
11763;SDS011;5939;56.522;14.950;2023-10-19T02:38:58;2.10;;;1.60;;
11763;SDS011;5939;56.522;14.950;2023-10-19T02:41:32;1.73;;;1.47;;
11763;SDS011;5939;56.522;14.950;2023-10-19T02:44:07;2.40;;;1.63;;
11763;SDS011;5939;56.522;14.950;2023-10-19T02:46:51;3.47;;;1.50;;
11763;SDS011;5939;56.522;14.950;2023-10-19T02:49:23;2.63;;;1.50;;
11763;SDS011;5939;56.522;14.950;2023-10-19T02:51:50;2.03;;;1.53;;
11763;SDS011;5939;56.522;14.950;2023-10-19T02:54:18;2.70;;;1.50;;
11763;SDS011;5939;56.522;14.950;2023-10-19T02:56:47;1.97;;;1.57;;
11763;SDS011;5939;56.522;14.950;2023-10-19T02:59:14;1.70;;;1.40;;
11763;SDS011;5939;56.522;14.950;2023-10-19T03:01:53;2.47;;;1.40;;
11763;SDS011;5939;56.522;14.950;2023-10-19T03:04:26;1.87;;;1.60;;
11763;SDS011;5939;56.522;14.950;2023-10-19T03:06:53;2.80;;;1.77;;
11763;SDS011;5939;56.522;14.950;2023-10-19T03:09:21;2.00;;;1.30;;
11763;SDS011;5939;56.522;14.950;2023-10-19T03:11:53;1.80;;;1.50;;
11763;SDS011;5939;56.522;14.950;2023-10-19T03:14:25;2.20;;;1.50;;
11763;SDS011;5939;56.522;14.950;2023-10-19T03:16:51;2.00;;;1.40;;
11763;SDS011;5939;56.522;14.950;2023-10-19T03:19:19;2.17;;;1.50;;
11763;SDS011;5939;56.522;14.950;2023-10-19T03:21:45;2.23;;;1.63;;
11763;SDS011;5939;56.522;14.950;2023-10-19T03:24:14;2.20;;;1.50;;
11763;SDS011;5939;56.522;14.950;2023-10-19T03:26:51;2.27;;;1.60;;
11763;SDS011;5939;56.522;14.950;2023-10-19T03:29:19;2.80;;;1.40;;
11763;SDS011;5939;56.522;14.950;2023-10-19T03:31:47;2.80;;;1.40;;
11763;SDS011;5939;56.522;14.950;2023-10-19T03:34:13;3.13;;;1.40;;
11763;SDS011;5939;56.522;14.950;2023-10-19T03:36:41;3.30;;;1.60;;
11763;SDS011;5939;56.522;14.950;2023-10-19T03:39:07;1.87;;;1.50;;
11763;SDS011;5939;56.522;14.950;2023-10-19T03:41:40;1.93;;;1.40;;
11763;SDS011;5939;56.522;14.950;2023-10-19T03:44:12;2.07;;;1.57;;
11763;SDS011;5939;56.522;14.950;2023-10-19T03:46:44;2.23;;;1.40;;
11763;SDS011;5939;56.522;14.950;2023-10-19T03:49:21;2.70;;;1.50;;
11763;SDS011;5939;56.522;14.950;2023-10-19T03:51:47;2.87;;;1.50;;
11763;SDS011;5939;56.522;14.950;2023-10-19T03:54:31;2.80;;;1.60;;
11763;SDS011;5939;56.522;14.950;2023-10-19T03:56:58;2.87;;;1.37;;
11763;SDS011;5939;56.522;14.950;2023-10-19T03:59:27;2.13;;;1.30;;
11763;SDS011;5939;56.522;14.950;2023-10-19T04:01:56;2.10;;;1.50;;
11763;SDS011;5939;56.522;14.950;2023-10-19T04:04:24;2.33;;;1.40;;
11763;SDS011;5939;56.522;14.950;2023-10-19T04:06:50;2.20;;;1.70;;
11763;SDS011;5939;56.522;14.950;2023-10-19T04:09:22;3.77;;;1.57;;
11763;SDS011;5939;56.522;14.950;2023-10-19T04:11:48;2.10;;;1.50;;
11763;SDS011;5939;56.522;14.950;2023-10-19T04:14:15;2.20;;;1.50;;
11763;SDS011;5939;56.522;14.950;2023-10-19T04:16:41;3.23;;;1.70;;
11763;SDS011;5939;56.522;14.950;2023-10-19T04:19:10;1.73;;;1.37;;
11763;SDS011;5939;56.522;14.950;2023-10-19T04:21:36;3.10;;;1.70;;
11763;SDS011;5939;56.522;14.950;2023-10-19T04:24:05;2.20;;;1.50;;
11763;SDS011;5939;56.522;14.950;2023-10-19T04:26:32;3.07;;;1.87;;
11763;SDS011;5939;56.522;14.950;2023-10-19T04:29:02;4.03;;;1.67;;
11763;SDS011;5939;56.522;14.950;2023-10-19T04:31:42;2.20;;;1.53;;
11763;SDS011;5939;56.522;14.950;2023-10-19T04:34:15;2.13;;;1.43;;
11763;SDS011;5939;56.522;14.950;2023-10-19T04:36:45;1.50;;;1.40;;
11763;SDS011;5939;56.522;14.950;2023-10-19T04:39:12;2.60;;;1.40;;
11763;SDS011;5939;56.522;14.950;2023-10-19T04:41:41;2.60;;;1.33;;
11763;SDS011;5939;56.522;14.950;2023-10-19T04:44:07;2.33;;;1.30;;
11763;SDS011;5939;56.522;14.950;2023-10-19T04:46:36;2.43;;;1.50;;
11763;SDS011;5939;56.522;14.950;2023-10-19T04:49:02;1.87;;;1.00;;
11763;SDS011;5939;56.522;14.950;2023-10-19T04:51:31;2.00;;;1.70;;
11763;SDS011;5939;56.522;14.950;2023-10-19T04:53:56;2.73;;;1.60;;
11763;SDS011;5939;56.522;14.950;2023-10-19T04:56:22;3.73;;;1.70;;
11763;SDS011;5939;56.522;14.950;2023-10-19T04:58:48;2.73;;;1.30;;
11763;SDS011;5939;56.522;14.950;2023-10-19T05:01:14;3.17;;;1.37;;
11763;SDS011;5939;56.522;14.950;2023-10-19T05:03:40;2.60;;;1.47;;
11763;SDS011;5939;56.522;14.950;2023-10-19T05:06:06;4.77;;;3.20;;
11763;SDS011;5939;56.522;14.950;2023-10-19T05:08:34;4.63;;;2.90;;
11763;SDS011;5939;56.522;14.950;2023-10-19T05:11:00;4.03;;;2.50;;
11763;SDS011;5939;56.522;14.950;2023-10-19T05:13:26;3.30;;;2.30;;
11763;SDS011;5939;56.522;14.950;2023-10-19T05:15:55;5.70;;;2.10;;
11763;SDS011;5939;56.522;14.950;2023-10-19T05:18:21;3.20;;;2.03;;
11763;SDS011;5939;56.522;14.950;2023-10-19T05:20:48;3.33;;;1.90;;
11763;SDS011;5939;56.522;14.950;2023-10-19T05:23:14;2.40;;;1.70;;
11763;SDS011;5939;56.522;14.950;2023-10-19T05:25:40;3.93;;;2.03;;
11763;SDS011;5939;56.522;14.950;2023-10-19T05:28:06;3.37;;;2.23;;
11763;SDS011;5939;56.522;14.950;2023-10-19T05:30:32;2.70;;;1.90;;
11763;SDS011;5939;56.522;14.950;2023-10-19T05:32:59;4.23;;;1.70;;
11763;SDS011;5939;56.522;14.950;2023-10-19T05:35:26;2.37;;;1.67;;
11763;SDS011;5939;56.522;14.950;2023-10-19T05:37:53;2.40;;;1.83;;
11763;SDS011;5939;56.522;14.950;2023-10-19T05:40:22;2.87;;;1.90;;
11763;SDS011;5939;56.522;14.950;2023-10-19T05:42:48;2.33;;;1.57;;
11763;SDS011;5939;56.522;14.950;2023-10-19T05:45:14;3.10;;;1.50;;
11763;SDS011;5939;56.522;14.950;2023-10-19T05:47:41;2.00;;;1.50;;
11763;SDS011;5939;56.522;14.950;2023-10-19T05:50:09;4.63;;;1.70;;
11763;SDS011;5939;56.522;14.950;2023-10-19T05:52:39;2.03;;;1.47;;
11763;SDS011;5939;56.522;14.950;2023-10-19T05:55:05;1.70;;;1.50;;
11763;SDS011;5939;56.522;14.950;2023-10-19T05:57:31;3.33;;;1.77;;
11763;SDS011;5939;56.522;14.950;2023-10-19T05:59:57;2.50;;;1.33;;
11763;SDS011;5939;56.522;14.950;2023-10-19T06:02:22;1.87;;;1.60;;
11763;SDS011;5939;56.522;14.950;2023-10-19T06:04:48;3.07;;;1.60;;
11763;SDS011;5939;56.522;14.950;2023-10-19T06:07:14;3.10;;;1.60;;
11763;SDS011;5939;56.522;14.950;2023-10-19T06:09:39;2.07;;;1.33;;
11763;SDS011;5939;56.522;14.950;2023-10-19T06:12:05;1.67;;;1.47;;
11763;SDS011;5939;56.522;14.950;2023-10-19T06:14:34;2.70;;;1.80;;
11763;SDS011;5939;56.522;14.950;2023-10-19T06:16:59;3.00;;;1.70;;
11763;SDS011;5939;56.522;14.950;2023-10-19T06:19:26;2.27;;;1.50;;
11763;SDS011;5939;56.522;14.950;2023-10-19T06:21:52;2.03;;;1.83;;
11763;SDS011;5939;56.522;14.950;2023-10-19T06:24:17;2.27;;;1.80;;
11763;SDS011;5939;56.522;14.950;2023-10-19T06:26:43;1.37;;;1.27;;
11763;SDS011;5939;56.522;14.950;2023-10-19T06:29:09;1.90;;;1.60;;
11763;SDS011;5939;56.522;14.950;2023-10-19T06:31:35;1.67;;;1.50;;
11763;SDS011;5939;56.522;14.950;2023-10-19T06:34:02;2.17;;;1.53;;
11763;SDS011;5939;56.522;14.950;2023-10-19T06:36:28;2.43;;;1.63;;
11763;SDS011;5939;56.522;14.950;2023-10-19T06:38:56;1.73;;;1.40;;
11763;SDS011;5939;56.522;14.950;2023-10-19T06:41:22;1.73;;;1.20;;
11763;SDS011;5939;56.522;14.950;2023-10-19T06:43:49;2.67;;;1.40;;
11763;SDS011;5939;56.522;14.950;2023-10-19T06:46:15;4.03;;;1.63;;
11763;SDS011;5939;56.522;14.950;2023-10-19T06:48:40;1.73;;;1.37;;
11763;SDS011;5939;56.522;14.950;2023-10-19T06:51:07;2.10;;;1.50;;
11763;SDS011;5939;56.522;14.950;2023-10-19T06:53:33;1.70;;;1.13;;
11763;SDS011;5939;56.522;14.950;2023-10-19T06:55:59;2.60;;;1.70;;
11763;SDS011;5939;56.522;14.950;2023-10-19T06:58:25;2.37;;;1.60;;
11763;SDS011;5939;56.522;14.950;2023-10-19T07:00:52;3.23;;;1.57;;
11763;SDS011;5939;56.522;14.950;2023-10-19T07:03:21;2.20;;;1.67;;
11763;SDS011;5939;56.522;14.950;2023-10-19T07:05:48;2.93;;;1.40;;
11763;SDS011;5939;56.522;14.950;2023-10-19T07:08:14;3.93;;;1.57;;
11763;SDS011;5939;56.522;14.950;2023-10-19T07:10:40;2.20;;;1.30;;
11763;SDS011;5939;56.522;14.950;2023-10-19T07:13:08;1.97;;;1.57;;
11763;SDS011;5939;56.522;14.950;2023-10-19T07:15:33;1.50;;;1.30;;
11763;SDS011;5939;56.522;14.950;2023-10-19T07:17:59;4.23;;;1.83;;
11763;SDS011;5939;56.522;14.950;2023-10-19T07:20:25;2.37;;;1.43;;
11763;SDS011;5939;56.522;14.950;2023-10-19T07:22:54;2.50;;;1.70;;
11763;SDS011;5939;56.522;14.950;2023-10-19T07:25:20;2.17;;;1.60;;
11763;SDS011;5939;56.522;14.950;2023-10-19T07:27:48;2.77;;;1.73;;
11763;SDS011;5939;56.522;14.950;2023-10-19T07:30:15;3.93;;;1.60;;
11763;SDS011;5939;56.522;14.950;2023-10-19T07:32:45;2.37;;;1.60;;
11763;SDS011;5939;56.522;14.950;2023-10-19T07:35:13;2.37;;;1.47;;
11763;SDS011;5939;56.522;14.950;2023-10-19T07:37:40;2.20;;;1.40;;
11763;SDS011;5939;56.522;14.950;2023-10-19T07:40:06;3.80;;;1.50;;
11763;SDS011;5939;56.522;14.950;2023-10-19T07:42:38;2.33;;;1.50;;
11763;SDS011;5939;56.522;14.950;2023-10-19T07:45:08;1.67;;;1.30;;
11763;SDS011;5939;56.522;14.950;2023-10-19T07:47:37;2.23;;;1.63;;
11763;SDS011;5939;56.522;14.950;2023-10-19T07:50:09;1.57;;;1.30;;
11763;SDS011;5939;56.522;14.950;2023-10-19T07:52:41;2.70;;;1.40;;
11763;SDS011;5939;56.522;14.950;2023-10-19T07:55:09;2.93;;;1.53;;
11763;SDS011;5939;56.522;14.950;2023-10-19T07:57:35;2.30;;;1.37;;
11763;SDS011;5939;56.522;14.950;2023-10-19T08:00:01;2.57;;;1.87;;
11763;SDS011;5939;56.522;14.950;2023-10-19T08:02:29;2.60;;;1.60;;
11763;SDS011;5939;56.522;14.950;2023-10-19T08:04:55;4.33;;;1.70;;
11763;SDS011;5939;56.522;14.950;2023-10-19T08:07:21;1.80;;;1.30;;
11763;SDS011;5939;56.522;14.950;2023-10-19T08:09:47;2.27;;;1.60;;
11763;SDS011;5939;56.522;14.950;2023-10-19T08:12:13;2.40;;;1.53;;
11763;SDS011;5939;56.522;14.950;2023-10-19T08:14:38;2.00;;;1.10;;
11763;SDS011;5939;56.522;14.950;2023-10-19T08:17:04;2.07;;;1.47;;
11763;SDS011;5939;56.522;14.950;2023-10-19T08:19:31;1.93;;;1.33;;
11763;SDS011;5939;56.522;14.950;2023-10-19T08:21:56;2.90;;;1.57;;
11763;SDS011;5939;56.522;14.950;2023-10-19T08:24:22;2.03;;;1.50;;
11763;SDS011;5939;56.522;14.950;2023-10-19T08:26:48;2.23;;;1.50;;
11763;SDS011;5939;56.522;14.950;2023-10-19T08:29:16;1.67;;;1.30;;
11763;SDS011;5939;56.522;14.950;2023-10-19T08:31:44;3.07;;;1.80;;
11763;SDS011;5939;56.522;14.950;2023-10-19T08:34:12;1.80;;;1.50;;
11763;SDS011;5939;56.522;14.950;2023-10-19T08:36:38;1.90;;;1.47;;
11763;SDS011;5939;56.522;14.950;2023-10-19T08:39:05;2.73;;;1.60;;
11763;SDS011;5939;56.522;14.950;2023-10-19T08:41:34;1.63;;;1.37;;
11763;SDS011;5939;56.522;14.950;2023-10-19T08:44:02;1.73;;;1.33;;
11763;SDS011;5939;56.522;14.950;2023-10-19T08:46:29;2.23;;;1.17;;
11763;SDS011;5939;56.522;14.950;2023-10-19T08:48:55;2.10;;;1.53;;
11763;SDS011;5939;56.522;14.950;2023-10-19T08:51:24;3.30;;;1.40;;
11763;SDS011;5939;56.522;14.950;2023-10-19T08:53:52;3.20;;;1.50;;
11763;SDS011;5939;56.522;14.950;2023-10-19T08:56:19;1.63;;;1.50;;
11763;SDS011;5939;56.522;14.950;2023-10-19T08:58:48;1.87;;;1.10;;
11763;SDS011;5939;56.522;14.950;2023-10-19T09:01:17;2.83;;;1.33;;
11763;SDS011;5939;56.522;14.950;2023-10-19T09:03:45;3.03;;;1.30;;
11763;SDS011;5939;56.522;14.950;2023-10-19T09:06:11;1.87;;;1.20;;
11763;SDS011;5939;56.522;14.950;2023-10-19T09:08:37;3.83;;;1.60;;
11763;SDS011;5939;56.522;14.950;2023-10-19T09:11:09;2.77;;;1.40;;
11763;SDS011;5939;56.522;14.950;2023-10-19T09:13:45;2.17;;;1.30;;
11763;SDS011;5939;56.522;14.950;2023-10-19T09:16:21;1.70;;;1.50;;
11763;SDS011;5939;56.522;14.950;2023-10-19T09:18:48;1.93;;;1.67;;
11763;SDS011;5939;56.522;14.950;2023-10-19T09:21:16;2.03;;;1.37;;
11763;SDS011;5939;56.522;14.950;2023-10-19T09:23:49;1.73;;;1.27;;
11763;SDS011;5939;56.522;14.950;2023-10-19T09:26:16;3.20;;;1.33;;
11763;SDS011;5939;56.522;14.950;2023-10-19T09:28:45;2.37;;;1.57;;
11763;SDS011;5939;56.522;14.950;2023-10-19T09:31:12;1.30;;;1.10;;
11763;SDS011;5939;56.522;14.950;2023-10-19T09:33:40;1.70;;;1.40;;
11763;SDS011;5939;56.522;14.950;2023-10-19T09:36:06;9.23;;;2.63;;
11763;SDS011;5939;56.522;14.950;2023-10-19T09:41:11;2.50;;;1.20;;
11763;SDS011;5939;56.522;14.950;2023-10-19T09:43:40;2.10;;;1.30;;
11763;SDS011;5939;56.522;14.950;2023-10-19T09:46:09;1.57;;;1.30;;
11763;SDS011;5939;56.522;14.950;2023-10-19T09:48:41;2.37;;;1.30;;
11763;SDS011;5939;56.522;14.950;2023-10-19T09:51:07;2.43;;;1.50;;
11763;SDS011;5939;56.522;14.950;2023-10-19T09:53:34;2.93;;;1.33;;
11763;SDS011;5939;56.522;14.950;2023-10-19T09:56:03;2.40;;;1.60;;
11763;SDS011;5939;56.522;14.950;2023-10-19T09:58:35;3.67;;;1.40;;
11763;SDS011;5939;56.522;14.950;2023-10-19T10:01:05;2.83;;;1.33;;
11763;SDS011;5939;56.522;14.950;2023-10-19T10:03:41;3.57;;;1.27;;
11763;SDS011;5939;56.522;14.950;2023-10-19T10:06:09;1.70;;;1.40;;
11763;SDS011;5939;56.522;14.950;2023-10-19T10:08:42;1.40;;;1.27;;
11763;SDS011;5939;56.522;14.950;2023-10-19T10:11:13;1.57;;;1.10;;
11763;SDS011;5939;56.522;14.950;2023-10-19T10:13:42;2.87;;;1.30;;
11763;SDS011;5939;56.522;14.950;2023-10-19T10:16:12;2.90;;;1.03;;
11763;SDS011;5939;56.522;14.950;2023-10-19T10:18:40;1.83;;;1.30;;
11763;SDS011;5939;56.522;14.950;2023-10-19T10:21:21;2.93;;;1.40;;
11763;SDS011;5939;56.522;14.950;2023-10-19T10:23:56;1.83;;;1.07;;
11763;SDS011;5939;56.522;14.950;2023-10-19T10:26:26;1.43;;;1.20;;
11763;SDS011;5939;56.522;14.950;2023-10-19T10:29:08;2.43;;;1.20;;
11763;SDS011;5939;56.522;14.950;2023-10-19T10:31:45;1.70;;;1.30;;
11763;SDS011;5939;56.522;14.950;2023-10-19T10:37:02;2.23;;;1.20;;
11763;SDS011;5939;56.522;14.950;2023-10-19T10:39:30;1.83;;;1.07;;
11763;SDS011;5939;56.522;14.950;2023-10-19T10:41:59;2.13;;;1.00;;
11763;SDS011;5939;56.522;14.950;2023-10-19T10:44:37;1.23;;;1.10;;
11763;SDS011;5939;56.522;14.950;2023-10-19T10:47:05;1.27;;;0.97;;
11763;SDS011;5939;56.522;14.950;2023-10-19T10:49:35;0.83;;;0.80;;
11763;SDS011;5939;56.522;14.950;2023-10-19T10:52:11;1.47;;;1.00;;
11763;SDS011;5939;56.522;14.950;2023-10-19T10:54:36;1.10;;;1.00;;
11763;SDS011;5939;56.522;14.950;2023-10-19T10:57:02;2.10;;;1.00;;
11763;SDS011;5939;56.522;14.950;2023-10-19T10:59:29;1.63;;;1.10;;
11763;SDS011;5939;56.522;14.950;2023-10-19T11:01:54;2.97;;;1.27;;
11763;SDS011;5939;56.522;14.950;2023-10-19T11:04:21;1.17;;;1.07;;
11763;SDS011;5939;56.522;14.950;2023-10-19T11:06:48;2.13;;;1.10;;
11763;SDS011;5939;56.522;14.950;2023-10-19T11:09:14;1.57;;;1.10;;
11763;SDS011;5939;56.522;14.950;2023-10-19T11:11:43;1.17;;;1.00;;
11763;SDS011;5939;56.522;14.950;2023-10-19T11:14:14;1.10;;;1.00;;
11763;SDS011;5939;56.522;14.950;2023-10-19T11:16:40;1.10;;;0.90;;
11763;SDS011;5939;56.522;14.950;2023-10-19T11:19:08;2.93;;;1.00;;
11763;SDS011;5939;56.522;14.950;2023-10-19T11:21:34;1.63;;;0.90;;
11763;SDS011;5939;56.522;14.950;2023-10-19T11:24:00;0.80;;;0.80;;
11763;SDS011;5939;56.522;14.950;2023-10-19T11:26:27;1.50;;;1.00;;
11763;SDS011;5939;56.522;14.950;2023-10-19T11:29:02;1.10;;;0.93;;
11763;SDS011;5939;56.522;14.950;2023-10-19T11:31:34;1.07;;;0.97;;
11763;SDS011;5939;56.522;14.950;2023-10-19T11:34:03;2.23;;;1.00;;
11763;SDS011;5939;56.522;14.950;2023-10-19T11:36:29;0.80;;;0.80;;
11763;SDS011;5939;56.522;14.950;2023-10-19T11:38:55;1.00;;;0.70;;
11763;SDS011;5939;56.522;14.950;2023-10-19T11:41:20;1.83;;;1.03;;
11763;SDS011;5939;56.522;14.950;2023-10-19T11:43:48;1.43;;;0.80;;
11763;SDS011;5939;56.522;14.950;2023-10-19T11:46:14;1.43;;;0.90;;
11763;SDS011;5939;56.522;14.950;2023-10-19T11:48:42;1.63;;;0.90;;
11763;SDS011;5939;56.522;14.950;2023-10-19T11:51:08;1.23;;;0.83;;
11763;SDS011;5939;56.522;14.950;2023-10-19T11:53:36;2.20;;;1.07;;
11763;SDS011;5939;56.522;14.950;2023-10-19T11:56:04;1.63;;;0.90;;
11763;SDS011;5939;56.522;14.950;2023-10-19T11:58:31;0.83;;;0.80;;
11763;SDS011;5939;56.522;14.950;2023-10-19T12:00:59;1.47;;;1.10;;
11763;SDS011;5939;56.522;14.950;2023-10-19T12:03:26;1.60;;;1.00;;
11763;SDS011;5939;56.522;14.950;2023-10-19T12:05:52;0.80;;;0.77;;
11763;SDS011;5939;56.522;14.950;2023-10-19T12:08:21;0.97;;;0.90;;
11763;SDS011;5939;56.522;14.950;2023-10-19T12:10:47;0.93;;;0.90;;
11763;SDS011;5939;56.522;14.950;2023-10-19T12:13:13;1.03;;;0.90;;
11763;SDS011;5939;56.522;14.950;2023-10-19T12:15:38;0.70;;;0.70;;
11763;SDS011;5939;56.522;14.950;2023-10-19T12:18:04;1.87;;;1.10;;
11763;SDS011;5939;56.522;14.950;2023-10-19T12:20:32;1.10;;;0.80;;
11763;SDS011;5939;56.522;14.950;2023-10-19T12:23:00;1.33;;;0.90;;
11763;SDS011;5939;56.522;14.950;2023-10-19T12:25:26;2.53;;;0.90;;
11763;SDS011;5939;56.522;14.950;2023-10-19T12:27:57;1.40;;;1.00;;
11763;SDS011;5939;56.522;14.950;2023-10-19T12:30:23;0.80;;;0.80;;
11763;SDS011;5939;56.522;14.950;2023-10-19T12:32:51;0.97;;;0.87;;
11763;SDS011;5939;56.522;14.950;2023-10-19T12:35:17;1.97;;;1.00;;
11763;SDS011;5939;56.522;14.950;2023-10-19T12:37:49;1.50;;;0.90;;
11763;SDS011;5939;56.522;14.950;2023-10-19T12:40:18;0.80;;;0.80;;
11763;SDS011;5939;56.522;14.950;2023-10-19T12:42:53;1.00;;;0.90;;
11763;SDS011;5939;56.522;14.950;2023-10-19T12:45:24;1.50;;;0.80;;
11763;SDS011;5939;56.522;14.950;2023-10-19T12:47:50;0.97;;;0.80;;
11763;SDS011;5939;56.522;14.950;2023-10-19T12:50:18;0.90;;;0.80;;
11763;SDS011;5939;56.522;14.950;2023-10-19T12:52:47;0.97;;;0.83;;
11763;SDS011;5939;56.522;14.950;2023-10-19T12:55:14;2.20;;;1.00;;
11763;SDS011;5939;56.522;14.950;2023-10-19T12:57:41;1.00;;;0.80;;
11763;SDS011;5939;56.522;14.950;2023-10-19T13:00:07;1.07;;;0.70;;
11763;SDS011;5939;56.522;14.950;2023-10-19T13:02:49;1.47;;;0.90;;
11763;SDS011;5939;56.522;14.950;2023-10-19T13:05:16;1.17;;;0.80;;
11763;SDS011;5939;56.522;14.950;2023-10-19T13:07:45;1.80;;;0.80;;
11763;SDS011;5939;56.522;14.950;2023-10-19T13:10:11;1.47;;;0.90;;
11763;SDS011;5939;56.522;14.950;2023-10-19T13:12:37;1.90;;;0.80;;
11763;SDS011;5939;56.522;14.950;2023-10-19T13:15:03;1.23;;;1.00;;
11763;SDS011;5939;56.522;14.950;2023-10-19T13:17:36;1.10;;;0.80;;
11763;SDS011;5939;56.522;14.950;2023-10-19T13:20:02;2.17;;;0.90;;
11763;SDS011;5939;56.522;14.950;2023-10-19T13:22:40;1.00;;;0.90;;
11763;SDS011;5939;56.522;14.950;2023-10-19T13:25:06;2.07;;;0.90;;
11763;SDS011;5939;56.522;14.950;2023-10-19T13:27:34;0.80;;;0.80;;
11763;SDS011;5939;56.522;14.950;2023-10-19T13:30:00;1.17;;;0.80;;
11763;SDS011;5939;56.522;14.950;2023-10-19T13:32:29;1.17;;;0.80;;
11763;SDS011;5939;56.522;14.950;2023-10-19T13:34:56;1.23;;;0.90;;
11763;SDS011;5939;56.522;14.950;2023-10-19T13:37:22;1.17;;;0.80;;
11763;SDS011;5939;56.522;14.950;2023-10-19T13:39:48;1.10;;;0.90;;
11763;SDS011;5939;56.522;14.950;2023-10-19T13:42:14;0.80;;;0.80;;
11763;SDS011;5939;56.522;14.950;2023-10-19T13:44:39;1.60;;;1.10;;
11763;SDS011;5939;56.522;14.950;2023-10-19T13:47:05;0.90;;;0.90;;
11763;SDS011;5939;56.522;14.950;2023-10-19T13:49:33;1.10;;;1.00;;
11763;SDS011;5939;56.522;14.950;2023-10-19T13:52:00;1.43;;;0.90;;
11763;SDS011;5939;56.522;14.950;2023-10-19T13:54:26;1.00;;;0.90;;
11763;SDS011;5939;56.522;14.950;2023-10-19T13:56:51;2.37;;;1.10;;
11763;SDS011;5939;56.522;14.950;2023-10-19T13:59:17;1.00;;;0.90;;
11763;SDS011;5939;56.522;14.950;2023-10-19T14:01:43;1.27;;;1.10;;
11763;SDS011;5939;56.522;14.950;2023-10-19T14:04:09;0.80;;;0.67;;
11763;SDS011;5939;56.522;14.950;2023-10-19T14:06:35;1.93;;;0.90;;
11763;SDS011;5939;56.522;14.950;2023-10-19T14:09:00;1.80;;;1.00;;
11763;SDS011;5939;56.522;14.950;2023-10-19T14:11:26;1.43;;;0.80;;
11763;SDS011;5939;56.522;14.950;2023-10-19T14:13:52;1.17;;;0.90;;
11763;SDS011;5939;56.522;14.950;2023-10-19T14:16:18;0.87;;;0.80;;
11763;SDS011;5939;56.522;14.950;2023-10-19T14:18:43;2.90;;;1.20;;
11763;SDS011;5939;56.522;14.950;2023-10-19T14:21:10;0.70;;;0.70;;
11763;SDS011;5939;56.522;14.950;2023-10-19T14:23:38;3.10;;;0.80;;
11763;SDS011;5939;56.522;14.950;2023-10-19T14:26:06;2.57;;;0.97;;
11763;SDS011;5939;56.522;14.950;2023-10-19T14:28:31;1.03;;;0.90;;
11763;SDS011;5939;56.522;14.950;2023-10-19T14:30:57;2.37;;;1.10;;
11763;SDS011;5939;56.522;14.950;2023-10-19T14:33:23;1.50;;;0.90;;
11763;SDS011;5939;56.522;14.950;2023-10-19T14:35:48;1.23;;;0.80;;
11763;SDS011;5939;56.522;14.950;2023-10-19T14:38:14;1.70;;;1.10;;
11763;SDS011;5939;56.522;14.950;2023-10-19T14:40:40;0.83;;;0.83;;
11763;SDS011;5939;56.522;14.950;2023-10-19T14:43:13;1.17;;;1.00;;
11763;SDS011;5939;56.522;14.950;2023-10-19T14:45:40;1.17;;;1.00;;
11763;SDS011;5939;56.522;14.950;2023-10-19T14:48:07;2.60;;;0.90;;
11763;SDS011;5939;56.522;14.950;2023-10-19T14:50:35;1.43;;;0.80;;
11763;SDS011;5939;56.522;14.950;2023-10-19T14:53:02;2.00;;;1.13;;
11763;SDS011;5939;56.522;14.950;2023-10-19T14:55:28;1.53;;;1.10;;
11763;SDS011;5939;56.522;14.950;2023-10-19T14:57:54;2.20;;;0.87;;
11763;SDS011;5939;56.522;14.950;2023-10-19T15:00:21;0.70;;;0.70;;
11763;SDS011;5939;56.522;14.950;2023-10-19T15:02:51;1.27;;;1.00;;
11763;SDS011;5939;56.522;14.950;2023-10-19T15:05:21;1.33;;;1.00;;